Manila, Utah
Current Conditions -  °F | °C
As of 2:53 PM on Thursday 27 Nov 2014 (Local Time) from KVEL Reporting Station
Clear Clear  
Wind Chill: 50°   Ceiling: Unl
Heat Index: 50°   Visibility: 10mi
Dew Point: 24°   Wind: 0mph
Humidity: 36%   Direction: NA
Pressure: 30.28"   Gusts: NA
Location:  40.99°N, 109.72°W
Report Text: KVEL 272153Z AUTO 00000KT 10SM CLR 10/M04 A3028 RMK AO2 SLP252 T01001044
Loading
Personal Weather Stations






























Interactive Weather Map New forecast layout! Learn more

10-Day Weather Forecast

Advertisements
Track Severe Weather on mobile